createdAt,value
2019-05-23T00:04:44.251Z,0.00
2019-05-23T00:09:42.250Z,0.00
2019-05-23T00:14:42.219Z,0.00
2019-05-23T00:19:42.145Z,0.00
2019-05-23T00:24:42.025Z,0.00
2019-05-23T00:29:41.989Z,0.00
2019-05-23T00:34:41.938Z,0.00
2019-05-23T00:39:41.874Z,0.00
2019-05-23T00:44:41.838Z,0.00
2019-05-23T00:49:41.791Z,0.00
2019-05-23T00:54:41.694Z,0.00
2019-05-23T00:59:41.729Z,0.00
2019-05-23T01:04:41.674Z,0.00
2019-05-23T01:09:41.631Z,0.00
2019-05-23T01:14:41.483Z,0.00
2019-05-23T01:19:41.469Z,0.00
2019-05-23T01:24:43.452Z,0.00
2019-05-23T01:29:41.327Z,0.00
2019-05-23T01:34:41.286Z,0.00
2019-05-23T01:39:41.265Z,0.00
2019-05-23T01:44:41.180Z,0.00
2019-05-23T01:49:41.124Z,0.00
2019-05-23T01:54:41.055Z,0.00
2019-05-23T01:59:41.011Z,0.00
2019-05-23T02:04:40.935Z,0.00
2019-05-23T02:09:40.878Z,0.00
2019-05-23T02:14:40.864Z,0.00
2019-05-23T02:19:40.785Z,0.00
2019-05-23T02:24:40.682Z,0.00
2019-05-23T02:29:40.721Z,0.00
2019-05-23T02:34:40.688Z,0.00
2019-05-23T02:39:40.521Z,0.00
2019-05-23T02:44:40.582Z,0.00
2019-05-23T02:49:40.537Z,0.00
2019-05-23T02:54:40.418Z,0.00
2019-05-23T02:59:40.343Z,0.00
2019-05-23T03:04:40.273Z,0.00
2019-05-23T03:09:40.346Z,0.00
2019-05-23T03:14:40.205Z,0.00
2019-05-23T03:19:40.107Z,0.00
2019-05-23T03:24:40.107Z,0.00
2019-05-23T03:29:40.000Z,0.00
2019-05-23T03:34:39.992Z,0.00
2019-05-23T03:39:39.874Z,0.00
2019-05-23T03:44:39.843Z,0.00
2019-05-23T03:49:39.775Z,0.00
2019-05-23T03:54:39.709Z,0.00
2019-05-23T03:59:40.764Z,0.00
2019-05-23T04:04:39.672Z,0.00
2019-05-23T04:09:39.600Z,0.00
2019-05-23T04:14:39.537Z,0.00
2019-05-23T04:19:39.455Z,0.00
2019-05-23T04:24:40.461Z,0.00
2019-05-23T04:29:39.433Z,0.00
2019-05-23T04:34:39.424Z,0.00
2019-05-23T04:39:40.565Z,322.00
2019-05-23T04:44:43.743Z,291.00
2019-05-23T04:49:40.226Z,0.00
2019-05-23T04:54:39.047Z,0.00
2019-05-23T04:59:39.161Z,8.00
2019-05-23T05:04:39.285Z,354.00
2019-05-23T05:09:38.862Z,311.00
2019-05-23T05:14:38.976Z,340.00
2019-05-23T05:19:38.766Z,5.00
2019-05-23T05:24:40.311Z,350.00
2019-05-23T05:29:38.732Z,315.00
2019-05-23T05:34:38.671Z,348.00
2019-05-23T05:39:38.917Z,0.00
2019-05-23T05:44:38.556Z,0.00
2019-05-23T05:49:42.053Z,354.00
2019-05-23T05:54:38.521Z,0.00
2019-05-23T05:59:38.380Z,0.00
2019-05-23T06:04:39.445Z,0.00
2019-05-23T06:09:38.333Z,0.00
2019-05-23T06:14:38.352Z,0.00
2019-05-23T06:19:38.246Z,0.00
2019-05-23T06:24:46.958Z,0.00
2019-05-23T06:29:39.145Z,0.00
2019-05-23T06:34:38.079Z,0.00
2019-05-23T06:39:37.916Z,0.00
2019-05-23T06:44:37.950Z,64.00
2019-05-23T06:49:37.883Z,269.00
2019-05-23T06:54:37.806Z,349.00
2019-05-23T06:59:37.783Z,45.00
2019-05-23T07:04:37.718Z,25.00
2019-05-23T07:09:37.613Z,63.00
2019-05-23T07:14:37.701Z,357.00
2019-05-23T07:19:37.611Z,34.00
2019-05-23T07:24:37.509Z,70.00
2019-05-23T07:29:37.679Z,44.00
2019-05-23T07:34:37.632Z,53.00
2019-05-23T07:39:37.428Z,28.00
2019-05-23T07:44:47.939Z,13.00
2019-05-23T07:49:38.223Z,45.00
2019-05-23T07:54:37.176Z,34.00
2019-05-23T07:59:37.139Z,45.00
2019-05-23T08:04:37.181Z,21.00
2019-05-23T08:09:37.097Z,3.00
2019-05-23T08:14:37.042Z,299.00
2019-05-23T08:19:49.103Z,35.00
2019-05-23T08:24:37.912Z,51.00
2019-05-23T08:29:37.015Z,315.00
2019-05-23T08:34:42.168Z,67.00
2019-05-23T08:39:38.847Z,281.00
2019-05-23T08:44:36.865Z,23.00
2019-05-23T08:49:36.784Z,277.00
2019-05-23T08:54:36.833Z,72.00
2019-05-23T08:59:36.757Z,20.00
2019-05-23T09:04:37.022Z,286.00
2019-05-23T09:09:36.712Z,12.00
2019-05-23T09:14:36.678Z,31.00
2019-05-23T09:19:36.645Z,43.00
2019-05-23T09:24:36.428Z,273.00
2019-05-23T09:29:36.630Z,55.00
2019-05-23T09:34:36.622Z,301.00
2019-05-23T09:39:36.344Z,17.00
2019-05-23T09:44:36.281Z,17.00
2019-05-23T09:49:36.245Z,48.00
2019-05-23T09:54:36.867Z,53.00
2019-05-23T09:59:36.598Z,293.00
2019-05-23T10:04:36.436Z,28.00
2019-05-23T10:09:36.215Z,39.00
2019-05-23T10:14:36.030Z,0.00
2019-05-23T10:19:36.040Z,291.00
2019-05-23T10:24:35.996Z,44.00
2019-05-23T10:29:35.935Z,73.00
2019-05-23T10:34:35.861Z,85.00
2019-05-23T10:39:36.439Z,54.00
2019-05-23T10:44:35.809Z,53.00
2019-05-23T10:49:35.756Z,44.00
2019-05-23T10:54:35.687Z,42.00
2019-05-23T10:59:35.912Z,25.00
2019-05-23T11:04:35.668Z,20.00
2019-05-23T11:09:38.261Z,39.00
2019-05-23T11:14:35.524Z,69.00
2019-05-23T11:19:35.761Z,24.00
2019-05-23T11:24:35.479Z,71.00
2019-05-23T11:29:35.434Z,39.00
2019-05-23T11:34:35.368Z,69.00
2019-05-23T11:39:42.035Z,77.00
2019-05-23T11:44:36.362Z,285.00
2019-05-23T11:49:35.251Z,61.00
2019-05-23T11:54:35.300Z,314.00
2019-05-23T11:59:35.204Z,65.00
2019-05-23T12:04:35.263Z,30.00
2019-05-23T12:09:35.338Z,58.00
2019-05-23T12:14:35.108Z,12.00
2019-05-23T12:19:35.169Z,278.00
2019-05-23T12:24:35.891Z,278.00
2019-05-23T12:29:34.946Z,89.00
2019-05-23T12:34:34.843Z,84.00
2019-05-23T12:39:34.901Z,41.00
2019-05-23T12:44:34.824Z,32.00
2019-05-23T12:49:34.992Z,89.00
2019-05-23T12:54:34.772Z,89.00
2019-05-23T12:59:34.707Z,46.00
2019-05-23T13:04:37.608Z,70.00
2019-05-23T13:09:34.676Z,36.00
2019-05-23T13:14:34.583Z,29.00
2019-05-23T13:19:34.483Z,31.00
2019-05-23T13:24:51.430Z,78.00
2019-05-23T13:29:35.639Z,25.00
2019-05-23T13:34:34.758Z,65.00
2019-05-23T13:39:34.708Z,32.00
2019-05-23T13:44:35.929Z,57.00
2019-05-23T13:49:34.276Z,65.00
2019-05-23T13:54:36.639Z,11.00
2019-05-23T13:59:34.205Z,31.00
2019-05-23T14:04:34.132Z,69.00
2019-05-23T14:09:34.479Z,308.00
2019-05-23T14:14:34.169Z,70.00
2019-05-23T14:19:33.990Z,317.00
2019-05-23T14:24:37.714Z,17.00
2019-05-23T14:29:33.951Z,18.00
2019-05-23T14:34:33.893Z,279.00
2019-05-23T14:39:34.136Z,27.00
2019-05-23T14:44:34.846Z,42.00
2019-05-23T14:49:34.122Z,279.00
2019-05-23T14:54:33.843Z,88.00
2019-05-23T14:59:33.728Z,54.00
2019-05-23T15:04:33.682Z,283.00
2019-05-23T15:09:33.613Z,74.00
2019-05-23T15:14:33.668Z,273.00
2019-05-23T15:19:44.220Z,291.00
2019-05-23T15:24:34.486Z,83.00
2019-05-23T15:29:33.454Z,52.00
2019-05-23T15:34:35.202Z,29.00
2019-05-23T15:39:33.355Z,290.00
2019-05-23T15:44:33.342Z,284.00
2019-05-23T15:49:33.257Z,297.00
2019-05-23T15:54:33.248Z,275.00
2019-05-23T15:59:33.187Z,305.00
2019-05-23T16:04:33.137Z,311.00
2019-05-23T16:09:33.211Z,320.00
2019-05-23T16:14:33.072Z,317.00
2019-05-23T16:19:33.363Z,277.00
2019-05-23T16:24:32.974Z,83.00
2019-05-23T16:29:32.898Z,292.00
2019-05-23T16:34:32.872Z,321.00
2019-05-23T16:39:46.790Z,304.00
2019-05-23T16:44:33.773Z,302.00
2019-05-23T16:49:32.731Z,287.00
2019-05-23T16:54:32.684Z,296.00
2019-05-23T16:59:32.634Z,342.00
2019-05-23T17:04:32.626Z,317.00
2019-05-23T17:09:32.642Z,313.00
2019-05-23T17:14:32.529Z,304.00
2019-05-23T17:19:32.562Z,318.00
2019-05-23T17:24:33.494Z,311.00
2019-05-23T17:29:32.431Z,311.00
2019-05-23T17:34:32.681Z,320.00
2019-05-23T17:39:32.416Z,323.00
2019-05-23T17:44:32.341Z,303.00
2019-05-23T17:49:32.250Z,322.00
2019-05-23T17:54:32.245Z,314.00
2019-05-23T17:59:32.198Z,297.00
2019-05-23T18:04:32.111Z,317.00
2019-05-23T18:09:32.172Z,314.00
2019-05-23T18:14:32.054Z,312.00
2019-05-23T18:19:31.958Z,306.00
2019-05-23T18:24:31.906Z,313.00
2019-05-23T18:29:31.872Z,313.00
2019-05-23T18:34:31.862Z,312.00
2019-05-23T18:39:31.761Z,314.00
2019-05-23T18:44:31.832Z,269.00
2019-05-23T18:49:31.664Z,314.00
2019-05-23T18:54:31.592Z,314.00
2019-05-23T18:59:31.631Z,314.00
2019-05-23T19:04:31.529Z,314.00
2019-05-23T19:09:31.491Z,314.00
2019-05-23T19:14:31.520Z,314.00
2019-05-23T19:19:31.351Z,314.00
2019-05-23T19:24:31.336Z,314.00
2019-05-23T19:29:31.245Z,314.00
2019-05-23T19:34:31.206Z,314.00
2019-05-23T19:39:31.165Z,314.00
2019-05-23T19:44:31.264Z,314.00
2019-05-23T19:49:31.013Z,314.00
2019-05-23T19:54:31.003Z,314.00
2019-05-23T19:59:30.929Z,314.00
2019-05-23T20:04:31.395Z,314.00
2019-05-23T20:09:30.822Z,314.00
2019-05-23T20:14:30.768Z,314.00
2019-05-23T20:19:30.710Z,314.00
2019-05-23T20:24:30.617Z,314.00
2019-05-23T20:29:30.579Z,313.00
2019-05-23T20:34:30.501Z,314.00
2019-05-23T20:39:30.493Z,314.00
2019-05-23T20:44:30.407Z,314.00
2019-05-23T20:49:30.423Z,314.00
2019-05-23T20:54:33.337Z,314.00
2019-05-23T20:59:30.311Z,314.00
2019-05-23T21:04:30.213Z,314.00
2019-05-23T21:09:30.148Z,314.00
2019-05-23T21:14:30.102Z,314.00
2019-05-23T21:19:30.033Z,314.00
2019-05-23T21:24:30.017Z,314.00
2019-05-23T21:29:29.922Z,314.00
2019-05-23T21:34:29.907Z,314.00
2019-05-23T21:39:29.836Z,314.00
2019-05-23T21:44:29.787Z,314.00
2019-05-23T21:49:29.720Z,352.00
2019-05-23T21:54:29.687Z,291.00
2019-05-23T21:59:29.641Z,291.00
2019-05-23T22:04:29.564Z,291.00
2019-05-23T22:09:29.514Z,291.00
2019-05-23T22:14:29.494Z,291.00
2019-05-23T22:19:29.424Z,291.00
2019-05-23T22:24:29.366Z,291.00
2019-05-23T22:29:29.351Z,293.00
2019-05-23T22:34:29.258Z,291.00
2019-05-23T22:39:29.218Z,291.00
2019-05-23T22:44:29.164Z,291.00
2019-05-23T22:49:29.077Z,291.00
2019-05-23T22:54:29.038Z,291.00
2019-05-23T22:59:28.955Z,291.00
2019-05-23T23:04:28.925Z,291.00
2019-05-23T23:09:28.877Z,291.00
2019-05-23T23:14:28.792Z,65.00
2019-05-23T23:19:28.750Z,0.00
2019-05-23T23:24:28.701Z,0.00
2019-05-23T23:29:28.634Z,0.00
2019-05-23T23:34:28.595Z,0.00
2019-05-23T23:39:28.502Z,0.00
2019-05-23T23:44:28.460Z,0.00
2019-05-23T23:49:28.429Z,0.00
2019-05-23T23:54:28.370Z,0.00
2019-05-23T23:59:28.312Z,0.00
